sensor_id;sensor_type;location;lat;lon;timestamp;P1;durP1;ratioP1;P2;durP2;ratioP2
11191;SDS011;5652;48.406;10.820;2024-01-30T00:00:30;20.17;;;14.13;;
11191;SDS011;5652;48.406;10.820;2024-01-30T00:02:57;19.45;;;14.45;;
11191;SDS011;5652;48.406;10.820;2024-01-30T00:05:24;21.43;;;14.83;;
11191;SDS011;5652;48.406;10.820;2024-01-30T00:07:52;19.85;;;14.65;;
11191;SDS011;5652;48.406;10.820;2024-01-30T00:10:20;19.83;;;14.15;;
11191;SDS011;5652;48.406;10.820;2024-01-30T00:12:47;19.65;;;14.25;;
11191;SDS011;5652;48.406;10.820;2024-01-30T00:15:14;20.08;;;14.77;;
11191;SDS011;5652;48.406;10.820;2024-01-30T00:17:41;19.55;;;14.57;;
11191;SDS011;5652;48.406;10.820;2024-01-30T00:20:08;19.83;;;14.70;;
11191;SDS011;5652;48.406;10.820;2024-01-30T00:22:35;21.00;;;15.32;;
11191;SDS011;5652;48.406;10.820;2024-01-30T00:25:04;21.95;;;15.60;;
11191;SDS011;5652;48.406;10.820;2024-01-30T00:27:32;23.13;;;18.13;;
11191;SDS011;5652;48.406;10.820;2024-01-30T00:29:59;22.00;;;17.17;;
11191;SDS011;5652;48.406;10.820;2024-01-30T00:32:26;21.30;;;15.35;;
11191;SDS011;5652;48.406;10.820;2024-01-30T00:34:53;20.80;;;15.50;;
11191;SDS011;5652;48.406;10.820;2024-01-30T00:37:20;23.33;;;16.48;;
11191;SDS011;5652;48.406;10.820;2024-01-30T00:39:47;19.65;;;14.90;;
11191;SDS011;5652;48.406;10.820;2024-01-30T00:42:15;20.58;;;14.68;;
11191;SDS011;5652;48.406;10.820;2024-01-30T00:44:43;20.48;;;14.68;;
11191;SDS011;5652;48.406;10.820;2024-01-30T00:47:10;21.13;;;14.82;;
11191;SDS011;5652;48.406;10.820;2024-01-30T00:49:37;21.25;;;15.63;;
11191;SDS011;5652;48.406;10.820;2024-01-30T00:52:04;22.92;;;16.70;;
11191;SDS011;5652;48.406;10.820;2024-01-30T00:54:31;21.88;;;16.35;;
11191;SDS011;5652;48.406;10.820;2024-01-30T00:56:58;20.45;;;15.75;;
11191;SDS011;5652;48.406;10.820;2024-01-30T00:59:27;21.45;;;16.33;;
11191;SDS011;5652;48.406;10.820;2024-01-30T01:01:54;21.58;;;16.48;;
11191;SDS011;5652;48.406;10.820;2024-01-30T01:04:22;22.63;;;16.58;;
11191;SDS011;5652;48.406;10.820;2024-01-30T01:06:49;23.73;;;16.10;;
11191;SDS011;5652;48.406;10.820;2024-01-30T01:09:16;23.02;;;17.15;;
11191;SDS011;5652;48.406;10.820;2024-01-30T01:11:43;21.70;;;15.90;;
11191;SDS011;5652;48.406;10.820;2024-01-30T01:14:10;23.30;;;17.75;;
11191;SDS011;5652;48.406;10.820;2024-01-30T01:16:38;24.20;;;18.67;;
11191;SDS011;5652;48.406;10.820;2024-01-30T01:19:05;25.10;;;19.03;;
11191;SDS011;5652;48.406;10.820;2024-01-30T01:21:32;27.58;;;20.20;;
11191;SDS011;5652;48.406;10.820;2024-01-30T01:23:59;27.37;;;20.33;;
11191;SDS011;5652;48.406;10.820;2024-01-30T01:26:26;26.38;;;19.77;;
11191;SDS011;5652;48.406;10.820;2024-01-30T01:28:53;25.65;;;17.58;;
11191;SDS011;5652;48.406;10.820;2024-01-30T01:31:20;21.23;;;16.05;;
11191;SDS011;5652;48.406;10.820;2024-01-30T01:33:51;22.08;;;15.15;;
11191;SDS011;5652;48.406;10.820;2024-01-30T01:36:18;17.95;;;13.80;;
11191;SDS011;5652;48.406;10.820;2024-01-30T01:38:45;18.08;;;13.60;;
11191;SDS011;5652;48.406;10.820;2024-01-30T01:41:12;23.40;;;14.95;;
11191;SDS011;5652;48.406;10.820;2024-01-30T01:43:39;19.20;;;14.33;;
11191;SDS011;5652;48.406;10.820;2024-01-30T01:46:06;19.80;;;15.23;;
11191;SDS011;5652;48.406;10.820;2024-01-30T01:48:33;19.27;;;14.63;;
11191;SDS011;5652;48.406;10.820;2024-01-30T01:51:02;17.40;;;13.63;;
11191;SDS011;5652;48.406;10.820;2024-01-30T01:53:29;19.03;;;13.60;;
11191;SDS011;5652;48.406;10.820;2024-01-30T01:55:56;25.92;;;17.88;;
11191;SDS011;5652;48.406;10.820;2024-01-30T01:58:24;18.95;;;13.20;;
11191;SDS011;5652;48.406;10.820;2024-01-30T02:00:54;18.27;;;13.32;;
11191;SDS011;5652;48.406;10.820;2024-01-30T02:03:23;18.43;;;13.07;;
11191;SDS011;5652;48.406;10.820;2024-01-30T02:05:50;16.98;;;12.70;;
11191;SDS011;5652;48.406;10.820;2024-01-30T02:08:18;19.05;;;13.32;;
11191;SDS011;5652;48.406;10.820;2024-01-30T02:10:46;21.40;;;14.93;;
11191;SDS011;5652;48.406;10.820;2024-01-30T02:13:13;24.02;;;17.42;;
11191;SDS011;5652;48.406;10.820;2024-01-30T02:15:40;17.27;;;13.20;;
11191;SDS011;5652;48.406;10.820;2024-01-30T02:18:07;18.73;;;12.83;;
11191;SDS011;5652;48.406;10.820;2024-01-30T02:20:34;17.50;;;12.82;;
11191;SDS011;5652;48.406;10.820;2024-01-30T02:23:03;17.17;;;12.20;;
11191;SDS011;5652;48.406;10.820;2024-01-30T02:25:31;17.07;;;12.27;;
11191;SDS011;5652;48.406;10.820;2024-01-30T02:27:58;15.82;;;11.70;;
11191;SDS011;5652;48.406;10.820;2024-01-30T02:30:25;15.48;;;11.45;;
11191;SDS011;5652;48.406;10.820;2024-01-30T02:32:52;15.90;;;11.30;;
11191;SDS011;5652;48.406;10.820;2024-01-30T02:35:19;15.13;;;11.25;;
11191;SDS011;5652;48.406;10.820;2024-01-30T02:37:46;15.90;;;11.70;;
11191;SDS011;5652;48.406;10.820;2024-01-30T02:40:15;14.60;;;11.15;;
11191;SDS011;5652;48.406;10.820;2024-01-30T02:42:42;18.77;;;12.77;;
11191;SDS011;5652;48.406;10.820;2024-01-30T02:45:10;16.98;;;12.50;;
11191;SDS011;5652;48.406;10.820;2024-01-30T02:47:38;16.30;;;12.55;;
11191;SDS011;5652;48.406;10.820;2024-01-30T02:50:05;15.45;;;12.75;;
11191;SDS011;5652;48.406;10.820;2024-01-30T02:52:32;18.73;;;13.10;;
11191;SDS011;5652;48.406;10.820;2024-01-30T02:55:00;18.83;;;13.80;;
11191;SDS011;5652;48.406;10.820;2024-01-30T02:57:28;18.77;;;13.32;;
11191;SDS011;5652;48.406;10.820;2024-01-30T02:59:55;18.15;;;13.43;;
11191;SDS011;5652;48.406;10.820;2024-01-30T03:05:26;16.45;;;12.05;;
11191;SDS011;5652;48.406;10.820;2024-01-30T03:07:53;14.45;;;11.30;;
11191;SDS011;5652;48.406;10.820;2024-01-30T03:10:20;14.87;;;11.20;;
11191;SDS011;5652;48.406;10.820;2024-01-30T03:12:49;16.05;;;11.43;;
11191;SDS011;5652;48.406;10.820;2024-01-30T03:15:16;13.35;;;10.27;;
11191;SDS011;5652;48.406;10.820;2024-01-30T03:17:43;14.95;;;10.88;;
11191;SDS011;5652;48.406;10.820;2024-01-30T03:20:10;15.02;;;10.80;;
11191;SDS011;5652;48.406;10.820;2024-01-30T03:22:38;15.88;;;11.48;;
11191;SDS011;5652;48.406;10.820;2024-01-30T03:25:05;14.77;;;11.43;;
11191;SDS011;5652;48.406;10.820;2024-01-30T03:27:32;14.68;;;11.05;;
11191;SDS011;5652;48.406;10.820;2024-01-30T03:30:02;13.00;;;10.77;;
11191;SDS011;5652;48.406;10.820;2024-01-30T03:32:30;14.65;;;11.45;;
11191;SDS011;5652;48.406;10.820;2024-01-30T03:34:57;14.05;;;10.70;;
11191;SDS011;5652;48.406;10.820;2024-01-30T03:37:24;13.73;;;11.10;;
11191;SDS011;5652;48.406;10.820;2024-01-30T03:39:51;16.20;;;12.98;;
11191;SDS011;5652;48.406;10.820;2024-01-30T03:42:18;15.80;;;12.07;;
11191;SDS011;5652;48.406;10.820;2024-01-30T03:44:45;16.35;;;11.65;;
11191;SDS011;5652;48.406;10.820;2024-01-30T03:47:14;14.23;;;11.23;;
11191;SDS011;5652;48.406;10.820;2024-01-30T03:49:41;16.30;;;11.20;;
11191;SDS011;5652;48.406;10.820;2024-01-30T03:52:08;15.13;;;11.25;;
11191;SDS011;5652;48.406;10.820;2024-01-30T03:54:35;14.77;;;11.48;;
11191;SDS011;5652;48.406;10.820;2024-01-30T03:57:03;15.02;;;11.65;;
11191;SDS011;5652;48.406;10.820;2024-01-30T03:59:30;14.60;;;10.50;;
11191;SDS011;5652;48.406;10.820;2024-01-30T04:01:57;14.45;;;10.70;;
11191;SDS011;5652;48.406;10.820;2024-01-30T04:04:26;14.13;;;10.23;;
11191;SDS011;5652;48.406;10.820;2024-01-30T04:06:53;14.95;;;11.18;;
11191;SDS011;5652;48.406;10.820;2024-01-30T04:09:20;15.45;;;11.00;;
11191;SDS011;5652;48.406;10.820;2024-01-30T04:11:47;13.30;;;10.18;;
11191;SDS011;5652;48.406;10.820;2024-01-30T04:14:14;12.53;;;10.00;;
11191;SDS011;5652;48.406;10.820;2024-01-30T04:19:46;13.80;;;9.30;;
11191;SDS011;5652;48.406;10.820;2024-01-30T04:22:13;12.25;;;9.80;;
11191;SDS011;5652;48.406;10.820;2024-01-30T04:24:40;13.13;;;10.05;;
11191;SDS011;5652;48.406;10.820;2024-01-30T04:27:07;14.23;;;10.05;;
11191;SDS011;5652;48.406;10.820;2024-01-30T04:29:34;13.98;;;9.35;;
11191;SDS011;5652;48.406;10.820;2024-01-30T04:32:02;14.10;;;9.70;;
11191;SDS011;5652;48.406;10.820;2024-01-30T04:34:29;12.85;;;9.57;;
11191;SDS011;5652;48.406;10.820;2024-01-30T04:36:57;12.20;;;9.40;;
11191;SDS011;5652;48.406;10.820;2024-01-30T04:39:24;11.97;;;9.60;;
11191;SDS011;5652;48.406;10.820;2024-01-30T04:41:51;13.73;;;10.18;;
11191;SDS011;5652;48.406;10.820;2024-01-30T04:44:18;11.82;;;9.45;;
11191;SDS011;5652;48.406;10.820;2024-01-30T04:46:46;12.43;;;9.15;;
11191;SDS011;5652;48.406;10.820;2024-01-30T04:49:13;11.30;;;9.02;;
11191;SDS011;5652;48.406;10.820;2024-01-30T04:51:40;13.80;;;9.65;;
11191;SDS011;5652;48.406;10.820;2024-01-30T04:54:08;13.77;;;10.10;;
11191;SDS011;5652;48.406;10.820;2024-01-30T04:56:35;12.90;;;9.13;;
11191;SDS011;5652;48.406;10.820;2024-01-30T04:59:04;12.20;;;9.38;;
11191;SDS011;5652;48.406;10.820;2024-01-30T05:01:31;11.75;;;8.90;;
11191;SDS011;5652;48.406;10.820;2024-01-30T05:03:58;12.30;;;9.30;;
11191;SDS011;5652;48.406;10.820;2024-01-30T05:06:26;11.32;;;8.85;;
11191;SDS011;5652;48.406;10.820;2024-01-30T05:08:53;11.57;;;9.02;;
11191;SDS011;5652;48.406;10.820;2024-01-30T05:11:21;12.63;;;9.07;;
11191;SDS011;5652;48.406;10.820;2024-01-30T05:13:48;11.02;;;8.95;;
11191;SDS011;5652;48.406;10.820;2024-01-30T05:16:16;11.30;;;8.93;;
11191;SDS011;5652;48.406;10.820;2024-01-30T05:18:43;11.50;;;8.90;;
11191;SDS011;5652;48.406;10.820;2024-01-30T05:21:10;12.15;;;9.15;;
11191;SDS011;5652;48.406;10.820;2024-01-30T05:23:37;12.23;;;9.48;;
11191;SDS011;5652;48.406;10.820;2024-01-30T05:26:05;14.13;;;10.27;;
11191;SDS011;5652;48.406;10.820;2024-01-30T05:28:33;12.75;;;9.43;;
11191;SDS011;5652;48.406;10.820;2024-01-30T05:31:01;11.60;;;9.00;;
11191;SDS011;5652;48.406;10.820;2024-01-30T05:33:28;11.40;;;9.43;;
11191;SDS011;5652;48.406;10.820;2024-01-30T05:35:55;11.45;;;9.57;;
11191;SDS011;5652;48.406;10.820;2024-01-30T05:38:22;12.57;;;9.52;;
11191;SDS011;5652;48.406;10.820;2024-01-30T05:40:49;12.55;;;9.80;;
11191;SDS011;5652;48.406;10.820;2024-01-30T05:43:17;13.57;;;10.02;;
11191;SDS011;5652;48.406;10.820;2024-01-30T05:45:45;13.98;;;10.63;;
11191;SDS011;5652;48.406;10.820;2024-01-30T05:48:12;15.57;;;12.20;;
11191;SDS011;5652;48.406;10.820;2024-01-30T05:50:39;15.18;;;11.07;;
11191;SDS011;5652;48.406;10.820;2024-01-30T05:53:06;13.07;;;10.13;;
11191;SDS011;5652;48.406;10.820;2024-01-30T05:55:33;11.65;;;10.02;;
11191;SDS011;5652;48.406;10.820;2024-01-30T05:58:01;13.65;;;10.50;;
11191;SDS011;5652;48.406;10.820;2024-01-30T06:00:28;12.88;;;9.98;;
11191;SDS011;5652;48.406;10.820;2024-01-30T06:02:57;13.52;;;10.45;;
11191;SDS011;5652;48.406;10.820;2024-01-30T06:05:24;13.50;;;10.43;;
11191;SDS011;5652;48.406;10.820;2024-01-30T06:07:51;15.40;;;10.40;;
11191;SDS011;5652;48.406;10.820;2024-01-30T06:10:18;12.75;;;10.13;;
11191;SDS011;5652;48.406;10.820;2024-01-30T06:12:47;13.05;;;9.95;;
11191;SDS011;5652;48.406;10.820;2024-01-30T06:15:14;14.02;;;9.75;;
11191;SDS011;5652;48.406;10.820;2024-01-30T06:17:41;12.90;;;9.68;;
11191;SDS011;5652;48.406;10.820;2024-01-30T06:20:10;12.98;;;9.60;;
11191;SDS011;5652;48.406;10.820;2024-01-30T06:22:37;12.23;;;9.18;;
11191;SDS011;5652;48.406;10.820;2024-01-30T06:25:04;11.50;;;8.90;;
11191;SDS011;5652;48.406;10.820;2024-01-30T06:27:31;10.90;;;8.77;;
11191;SDS011;5652;48.406;10.820;2024-01-30T06:29:58;12.57;;;9.47;;
11191;SDS011;5652;48.406;10.820;2024-01-30T06:32:25;12.50;;;9.10;;
11191;SDS011;5652;48.406;10.820;2024-01-30T06:34:53;10.90;;;9.02;;
11191;SDS011;5652;48.406;10.820;2024-01-30T06:37:22;12.15;;;9.50;;
11191;SDS011;5652;48.406;10.820;2024-01-30T06:39:49;12.10;;;9.88;;
11191;SDS011;5652;48.406;10.820;2024-01-30T06:42:17;12.38;;;10.27;;
11191;SDS011;5652;48.406;10.820;2024-01-30T06:44:44;13.02;;;10.20;;
11191;SDS011;5652;48.406;10.820;2024-01-30T06:47:11;13.90;;;10.35;;
11191;SDS011;5652;48.406;10.820;2024-01-30T06:49:38;13.18;;;10.43;;
11191;SDS011;5652;48.406;10.820;2024-01-30T06:52:07;14.15;;;10.85;;
11191;SDS011;5652;48.406;10.820;2024-01-30T06:54:35;13.20;;;9.85;;
11191;SDS011;5652;48.406;10.820;2024-01-30T06:57:03;12.50;;;10.05;;
11191;SDS011;5652;48.406;10.820;2024-01-30T06:59:34;12.60;;;9.82;;
11191;SDS011;5652;48.406;10.820;2024-01-30T07:02:01;14.98;;;11.10;;
11191;SDS011;5652;48.406;10.820;2024-01-30T07:04:28;14.30;;;10.65;;
11191;SDS011;5652;48.406;10.820;2024-01-30T07:06:56;14.02;;;10.82;;
11191;SDS011;5652;48.406;10.820;2024-01-30T07:09:24;15.88;;;12.80;;
11191;SDS011;5652;48.406;10.820;2024-01-30T07:11:52;15.25;;;12.13;;
11191;SDS011;5652;48.406;10.820;2024-01-30T07:14:20;15.02;;;12.00;;
11191;SDS011;5652;48.406;10.820;2024-01-30T07:16:47;15.27;;;10.88;;
11191;SDS011;5652;48.406;10.820;2024-01-30T07:19:15;13.70;;;10.43;;
11191;SDS011;5652;48.406;10.820;2024-01-30T07:21:42;11.95;;;9.55;;
11191;SDS011;5652;48.406;10.820;2024-01-30T07:24:09;12.30;;;8.90;;
11191;SDS011;5652;48.406;10.820;2024-01-30T07:26:36;12.95;;;9.40;;
11191;SDS011;5652;48.406;10.820;2024-01-30T07:29:04;12.05;;;9.00;;
11191;SDS011;5652;48.406;10.820;2024-01-30T07:31:32;11.55;;;8.73;;
11191;SDS011;5652;48.406;10.820;2024-01-30T07:33:59;10.93;;;8.18;;
11191;SDS011;5652;48.406;10.820;2024-01-30T07:36:26;8.85;;;7.40;;
11191;SDS011;5652;48.406;10.820;2024-01-30T07:38:53;8.82;;;7.15;;
11191;SDS011;5652;48.406;10.820;2024-01-30T07:41:20;10.27;;;7.30;;
11191;SDS011;5652;48.406;10.820;2024-01-30T07:43:48;10.23;;;7.10;;
11191;SDS011;5652;48.406;10.820;2024-01-30T07:46:16;8.75;;;6.65;;
11191;SDS011;5652;48.406;10.820;2024-01-30T07:48:43;8.88;;;6.20;;
11191;SDS011;5652;48.406;10.820;2024-01-30T07:51:10;9.02;;;6.57;;
11191;SDS011;5652;48.406;10.820;2024-01-30T07:53:37;8.65;;;6.47;;
11191;SDS011;5652;48.406;10.820;2024-01-30T07:56:05;8.82;;;6.85;;
11191;SDS011;5652;48.406;10.820;2024-01-30T07:58:32;12.13;;;8.93;;
11191;SDS011;5652;48.406;10.820;2024-01-30T08:00:59;12.13;;;9.00;;
11191;SDS011;5652;48.406;10.820;2024-01-30T08:03:28;8.70;;;6.97;;
11191;SDS011;5652;48.406;10.820;2024-01-30T08:05:55;7.93;;;6.37;;
11191;SDS011;5652;48.406;10.820;2024-01-30T08:08:22;7.70;;;6.03;;
11191;SDS011;5652;48.406;10.820;2024-01-30T08:10:49;10.68;;;7.70;;
11191;SDS011;5652;48.406;10.820;2024-01-30T08:13:16;9.65;;;7.30;;
11191;SDS011;5652;48.406;10.820;2024-01-30T08:15:43;9.43;;;6.68;;
11191;SDS011;5652;48.406;10.820;2024-01-30T08:18:10;8.40;;;6.30;;
11191;SDS011;5652;48.406;10.820;2024-01-30T08:20:39;8.13;;;6.38;;
11191;SDS011;5652;48.406;10.820;2024-01-30T08:23:06;8.68;;;6.70;;
11191;SDS011;5652;48.406;10.820;2024-01-30T08:25:33;13.53;;;8.03;;
11191;SDS011;5652;48.406;10.820;2024-01-30T08:28:01;13.60;;;9.00;;
11191;SDS011;5652;48.406;10.820;2024-01-30T08:30:29;12.00;;;8.25;;
11191;SDS011;5652;48.406;10.820;2024-01-30T08:32:56;10.23;;;7.90;;
11191;SDS011;5652;48.406;10.820;2024-01-30T08:35:23;11.52;;;8.38;;
11191;SDS011;5652;48.406;10.820;2024-01-30T08:37:51;12.18;;;8.13;;
11191;SDS011;5652;48.406;10.820;2024-01-30T08:40:19;8.63;;;6.60;;
11191;SDS011;5652;48.406;10.820;2024-01-30T08:42:46;9.32;;;6.50;;
11191;SDS011;5652;48.406;10.820;2024-01-30T08:45:13;8.40;;;6.75;;
11191;SDS011;5652;48.406;10.820;2024-01-30T08:47:40;8.95;;;7.07;;
11191;SDS011;5652;48.406;10.820;2024-01-30T08:50:07;8.63;;;6.80;;
11191;SDS011;5652;48.406;10.820;2024-01-30T08:52:34;10.32;;;6.55;;
11191;SDS011;5652;48.406;10.820;2024-01-30T08:55:03;9.13;;;6.40;;
11191;SDS011;5652;48.406;10.820;2024-01-30T08:57:30;9.77;;;6.15;;
11191;SDS011;5652;48.406;10.820;2024-01-30T08:59:57;8.40;;;5.70;;
11191;SDS011;5652;48.406;10.820;2024-01-30T09:02:25;6.60;;;5.20;;
11191;SDS011;5652;48.406;10.820;2024-01-30T09:04:52;6.60;;;5.45;;
11191;SDS011;5652;48.406;10.820;2024-01-30T09:07:19;6.05;;;4.88;;
11191;SDS011;5652;48.406;10.820;2024-01-30T09:09:46;6.10;;;4.72;;
11191;SDS011;5652;48.406;10.820;2024-01-30T09:12:15;5.30;;;4.30;;
11191;SDS011;5652;48.406;10.820;2024-01-30T09:14:42;5.82;;;4.30;;
11191;SDS011;5652;48.406;10.820;2024-01-30T09:17:09;6.30;;;4.50;;
11191;SDS011;5652;48.406;10.820;2024-01-30T09:19:37;6.03;;;4.78;;
11191;SDS011;5652;48.406;10.820;2024-01-30T09:22:04;6.00;;;4.50;;
11191;SDS011;5652;48.406;10.820;2024-01-30T09:24:31;5.13;;;4.20;;
11191;SDS011;5652;48.406;10.820;2024-01-30T09:26:58;6.03;;;4.88;;
11191;SDS011;5652;48.406;10.820;2024-01-30T09:29:27;5.38;;;4.40;;
11191;SDS011;5652;48.406;10.820;2024-01-30T09:31:54;5.55;;;4.30;;
11191;SDS011;5652;48.406;10.820;2024-01-30T09:34:21;6.03;;;4.75;;
11191;SDS011;5652;48.406;10.820;2024-01-30T09:36:48;6.30;;;4.32;;
11191;SDS011;5652;48.406;10.820;2024-01-30T09:39:15;5.40;;;4.20;;
11191;SDS011;5652;48.406;10.820;2024-01-30T09:41:45;6.10;;;4.35;;
11191;SDS011;5652;48.406;10.820;2024-01-30T09:44:13;6.10;;;4.32;;
11191;SDS011;5652;48.406;10.820;2024-01-30T09:46:43;6.55;;;4.80;;
11191;SDS011;5652;48.406;10.820;2024-01-30T09:49:13;6.45;;;4.70;;
11191;SDS011;5652;48.406;10.820;2024-01-30T09:51:44;5.10;;;4.55;;
11191;SDS011;5652;48.406;10.820;2024-01-30T09:54:12;6.20;;;5.03;;
11191;SDS011;5652;48.406;10.820;2024-01-30T09:56:41;7.28;;;4.72;;
11191;SDS011;5652;48.406;10.820;2024-01-30T09:59:08;5.78;;;4.55;;
11191;SDS011;5652;48.406;10.820;2024-01-30T10:01:35;7.65;;;5.00;;
11191;SDS011;5652;48.406;10.820;2024-01-30T10:04:05;5.93;;;4.93;;
11191;SDS011;5652;48.406;10.820;2024-01-30T10:06:32;6.28;;;4.82;;
11191;SDS011;5652;48.406;10.820;2024-01-30T10:09:00;6.38;;;4.80;;
11191;SDS011;5652;48.406;10.820;2024-01-30T10:11:27;6.10;;;4.63;;
11191;SDS011;5652;48.406;10.820;2024-01-30T10:13:54;5.80;;;4.72;;
11191;SDS011;5652;48.406;10.820;2024-01-30T10:16:21;6.10;;;4.90;;
11191;SDS011;5652;48.406;10.820;2024-01-30T10:18:48;7.03;;;5.47;;
11191;SDS011;5652;48.406;10.820;2024-01-30T10:21:17;7.13;;;5.13;;
11191;SDS011;5652;48.406;10.820;2024-01-30T10:23:45;6.63;;;5.10;;
11191;SDS011;5652;48.406;10.820;2024-01-30T10:26:12;7.28;;;5.70;;
11191;SDS011;5652;48.406;10.820;2024-01-30T10:28:39;8.43;;;6.15;;
11191;SDS011;5652;48.406;10.820;2024-01-30T10:31:06;9.30;;;6.45;;
11191;SDS011;5652;48.406;10.820;2024-01-30T10:33:34;8.35;;;6.15;;
11191;SDS011;5652;48.406;10.820;2024-01-30T10:36:01;7.95;;;5.80;;
11191;SDS011;5652;48.406;10.820;2024-01-30T10:38:30;7.22;;;6.00;;
11191;SDS011;5652;48.406;10.820;2024-01-30T10:40:58;7.38;;;5.55;;
11191;SDS011;5652;48.406;10.820;2024-01-30T10:43:28;8.15;;;5.60;;
11191;SDS011;5652;48.406;10.820;2024-01-30T10:45:58;8.18;;;6.40;;
11191;SDS011;5652;48.406;10.820;2024-01-30T10:48:29;7.35;;;5.85;;
11191;SDS011;5652;48.406;10.820;2024-01-30T10:50:57;6.88;;;4.88;;
11191;SDS011;5652;48.406;10.820;2024-01-30T10:53:25;6.70;;;5.50;;
11191;SDS011;5652;48.406;10.820;2024-01-30T10:55:54;7.80;;;5.80;;
11191;SDS011;5652;48.406;10.820;2024-01-30T10:58:22;8.45;;;6.15;;
11191;SDS011;5652;48.406;10.820;2024-01-30T11:00:49;6.25;;;5.00;;
11191;SDS011;5652;48.406;10.820;2024-01-30T11:03:17;6.67;;;5.43;;
11191;SDS011;5652;48.406;10.820;2024-01-30T11:05:48;8.53;;;5.13;;
11191;SDS011;5652;48.406;10.820;2024-01-30T11:08:22;7.32;;;5.50;;
11191;SDS011;5652;48.406;10.820;2024-01-30T11:10:49;8.18;;;5.13;;
11191;SDS011;5652;48.406;10.820;2024-01-30T11:13:18;7.20;;;4.83;;
11191;SDS011;5652;48.406;10.820;2024-01-30T11:15:47;5.68;;;4.50;;
11191;SDS011;5652;48.406;10.820;2024-01-30T11:18:22;7.23;;;4.20;;
11191;SDS011;5652;48.406;10.820;2024-01-30T11:20:49;5.45;;;4.30;;
11191;SDS011;5652;48.406;10.820;2024-01-30T11:23:16;5.68;;;4.00;;
11191;SDS011;5652;48.406;10.820;2024-01-30T11:25:43;4.90;;;3.75;;
11191;SDS011;5652;48.406;10.820;2024-01-30T11:28:13;5.38;;;4.18;;
11191;SDS011;5652;48.406;10.820;2024-01-30T11:30:42;5.28;;;3.60;;
11191;SDS011;5652;48.406;10.820;2024-01-30T11:33:10;5.00;;;3.60;;
11191;SDS011;5652;48.406;10.820;2024-01-30T11:35:38;6.53;;;4.25;;
11191;SDS011;5652;48.406;10.820;2024-01-30T11:38:06;6.10;;;4.20;;
11191;SDS011;5652;48.406;10.820;2024-01-30T11:40:34;6.47;;;4.07;;
11191;SDS011;5652;48.406;10.820;2024-01-30T11:43:01;5.88;;;3.80;;
11191;SDS011;5652;48.406;10.820;2024-01-30T11:45:29;6.05;;;3.65;;
11191;SDS011;5652;48.406;10.820;2024-01-30T11:47:58;5.07;;;3.60;;
11191;SDS011;5652;48.406;10.820;2024-01-30T11:50:28;4.97;;;3.80;;
11191;SDS011;5652;48.406;10.820;2024-01-30T11:52:55;5.85;;;3.90;;
11191;SDS011;5652;48.406;10.820;2024-01-30T11:55:23;4.82;;;3.70;;
11191;SDS011;5652;48.406;10.820;2024-01-30T11:57:50;4.80;;;3.92;;
11191;SDS011;5652;48.406;10.820;2024-01-30T12:00:17;5.10;;;3.90;;
11191;SDS011;5652;48.406;10.820;2024-01-30T12:02:48;5.38;;;3.90;;
11191;SDS011;5652;48.406;10.820;2024-01-30T12:05:18;5.72;;;3.80;;
11191;SDS011;5652;48.406;10.820;2024-01-30T12:07:46;4.95;;;3.95;;
11191;SDS011;5652;48.406;10.820;2024-01-30T12:10:15;6.13;;;4.35;;
11191;SDS011;5652;48.406;10.820;2024-01-30T12:12:51;5.05;;;3.92;;
11191;SDS011;5652;48.406;10.820;2024-01-30T12:15:18;6.70;;;4.53;;
11191;SDS011;5652;48.406;10.820;2024-01-30T12:17:48;6.25;;;4.47;;
11191;SDS011;5652;48.406;10.820;2024-01-30T12:20:15;7.35;;;4.60;;
11191;SDS011;5652;48.406;10.820;2024-01-30T12:22:46;7.07;;;4.53;;
11191;SDS011;5652;48.406;10.820;2024-01-30T12:25:14;12.02;;;4.63;;
11191;SDS011;5652;48.406;10.820;2024-01-30T12:27:42;6.00;;;4.40;;
11191;SDS011;5652;48.406;10.820;2024-01-30T12:30:09;7.20;;;4.70;;
11191;SDS011;5652;48.406;10.820;2024-01-30T12:32:39;7.60;;;4.85;;
11191;SDS011;5652;48.406;10.820;2024-01-30T12:35:06;6.22;;;4.47;;
11191;SDS011;5652;48.406;10.820;2024-01-30T12:37:34;6.22;;;4.65;;
11191;SDS011;5652;48.406;10.820;2024-01-30T12:40:03;7.25;;;5.05;;
11191;SDS011;5652;48.406;10.820;2024-01-30T12:42:31;11.02;;;5.60;;
11191;SDS011;5652;48.406;10.820;2024-01-30T12:44:58;7.63;;;4.82;;
11191;SDS011;5652;48.406;10.820;2024-01-30T12:47:25;9.13;;;5.28;;
11191;SDS011;5652;48.406;10.820;2024-01-30T12:49:52;11.02;;;5.72;;
11191;SDS011;5652;48.406;10.820;2024-01-30T12:52:20;10.88;;;5.65;;
11191;SDS011;5652;48.406;10.820;2024-01-30T12:54:47;8.18;;;5.50;;
11191;SDS011;5652;48.406;10.820;2024-01-30T12:57:16;12.25;;;6.30;;
11191;SDS011;5652;48.406;10.820;2024-01-30T12:59:43;7.07;;;5.55;;
11191;SDS011;5652;48.406;10.820;2024-01-30T13:02:10;12.50;;;6.00;;
11191;SDS011;5652;48.406;10.820;2024-01-30T13:04:38;14.13;;;5.85;;
11191;SDS011;5652;48.406;10.820;2024-01-30T13:07:06;8.77;;;5.75;;
11191;SDS011;5652;48.406;10.820;2024-01-30T13:09:33;12.10;;;5.70;;
11191;SDS011;5652;48.406;10.820;2024-01-30T13:12:00;9.63;;;5.40;;
11191;SDS011;5652;48.406;10.820;2024-01-30T13:14:28;8.85;;;4.82;;
11191;SDS011;5652;48.406;10.820;2024-01-30T13:16:55;11.02;;;5.78;;
11191;SDS011;5652;48.406;10.820;2024-01-30T13:19:22;8.82;;;5.40;;
11191;SDS011;5652;48.406;10.820;2024-01-30T13:21:50;10.23;;;5.00;;
11191;SDS011;5652;48.406;10.820;2024-01-30T13:24:17;7.60;;;5.00;;
11191;SDS011;5652;48.406;10.820;2024-01-30T13:26:46;10.48;;;5.28;;
11191;SDS011;5652;48.406;10.820;2024-01-30T13:29:14;9.77;;;5.60;;
11191;SDS011;5652;48.406;10.820;2024-01-30T13:31:42;9.43;;;5.10;;
11191;SDS011;5652;48.406;10.820;2024-01-30T13:34:11;12.30;;;5.97;;
11191;SDS011;5652;48.406;10.820;2024-01-30T13:36:38;6.45;;;4.35;;
11191;SDS011;5652;48.406;10.820;2024-01-30T13:39:06;7.95;;;4.80;;
11191;SDS011;5652;48.406;10.820;2024-01-30T13:41:35;7.78;;;4.95;;
11191;SDS011;5652;48.406;10.820;2024-01-30T13:44:02;10.52;;;5.50;;
11191;SDS011;5652;48.406;10.820;2024-01-30T13:46:29;9.80;;;5.45;;
11191;SDS011;5652;48.406;10.820;2024-01-30T13:48:58;9.15;;;5.63;;
11191;SDS011;5652;48.406;10.820;2024-01-30T13:51:25;10.40;;;5.53;;
11191;SDS011;5652;48.406;10.820;2024-01-30T13:53:52;8.38;;;5.30;;
11191;SDS011;5652;48.406;10.820;2024-01-30T13:56:19;8.65;;;5.68;;
11191;SDS011;5652;48.406;10.820;2024-01-30T13:58:47;8.82;;;5.40;;
11191;SDS011;5652;48.406;10.820;2024-01-30T14:01:15;8.93;;;5.25;;
11191;SDS011;5652;48.406;10.820;2024-01-30T14:03:42;9.70;;;5.40;;
11191;SDS011;5652;48.406;10.820;2024-01-30T14:06:10;9.90;;;5.30;;
11191;SDS011;5652;48.406;10.820;2024-01-30T14:08:37;10.05;;;5.50;;
11191;SDS011;5652;48.406;10.820;2024-01-30T14:11:05;9.77;;;5.68;;
11191;SDS011;5652;48.406;10.820;2024-01-30T14:13:32;9.23;;;5.78;;
11191;SDS011;5652;48.406;10.820;2024-01-30T14:15:59;9.60;;;5.75;;
11191;SDS011;5652;48.406;10.820;2024-01-30T14:18:26;10.00;;;6.15;;
11191;SDS011;5652;48.406;10.820;2024-01-30T14:20:54;13.45;;;6.30;;
11191;SDS011;5652;48.406;10.820;2024-01-30T14:23:22;11.85;;;5.80;;
11191;SDS011;5652;48.406;10.820;2024-01-30T14:25:49;12.50;;;6.50;;
11191;SDS011;5652;48.406;10.820;2024-01-30T14:28:17;7.15;;;5.95;;
11191;SDS011;5652;48.406;10.820;2024-01-30T14:30:44;15.40;;;6.70;;
11191;SDS011;5652;48.406;10.820;2024-01-30T14:33:12;11.52;;;5.93;;
11191;SDS011;5652;48.406;10.820;2024-01-30T14:35:39;13.07;;;6.18;;
11191;SDS011;5652;48.406;10.820;2024-01-30T14:38:06;10.27;;;6.28;;
11191;SDS011;5652;48.406;10.820;2024-01-30T14:40:36;11.73;;;6.10;;
11191;SDS011;5652;48.406;10.820;2024-01-30T14:43:04;10.95;;;6.65;;